Huvudsida
METAR-TAF:

METAR-TAF

Flygplatser :

Saint-Nazaire, Frankrike

latitud: 47-19N, longitud: 002-10W, höjd: 3 m

Aktuellt väderrapport

Denna rapport gjordes för 35 minuter sedan, klockan 04:30 UTC
Vind 9 kt från nord/nordost
Temperatur 2°C
Fuktighet 75%
Tryck 1028 hPa
Sikt 10 km eller mer
Inga moln under 1 500 m eller inga cumulonimbus

METAR: LFRZ 150430Z AUTO 02009KT CAVOK 02/M02 Q1028 NOSIG

Tid: 07:05 (05:05 UTC)

Väderprognos

Denna rapport gjordes för 6 timmar och 5 minuter sedan, klockan 23:00 UTC
Prognos gäller från 15 kl. 00 UTC till 15 kl. 24 UTC
Vind 12 kt från nordost
Sikt 10 km eller mer
Inga moln under 1 500 m eller inga cumulonimbus

TAF: LFRZ 142300Z 1500/1524 04012KT CAVOK

Aktuella väderrapporter och prognoser från 4000 flygplatser (METAR- och TAF-rapporter).

De tillgängliga stationerna syns som gula och röda prickar på kartan.

För musen över prickarna för att se namnen på stationerna.

Klicka sedan för att få väderrapporter och prognoser.

För att ändra kartan: Klicka på de gröna knapparna med ett svart kors på för att zooma in; den gröna knappen med ett streck på för att zooma ut; eller på de gröna pilarna för angränsande kartor.


METAR-TAF: